Tests — V7NV7 — position and weather

sailwx.info

Track history (hours):
 
Tides and Currents Weather Stations Pressure Air Temp Water Temp Dewpoint Dewpoint Depression Visibility Wind Speed Wind Dir Waves Ship Positions

Tests

Last reported at 2014-Sep-28 15:10 UTC. Time now 2014-Oct-01 12:23 UTC.
Position N 54°29' E 006°26'.

Length 37 m; draft 5.7 m.

Type: Cargo ship. MMSI: 438003028.

Date/timePositionNaut miles runAvg speedWind from/ knotsBaromVisibWave heightAir tempDewpointWater temp
2014-Sep-28 15:10N 54°29' E 006°26'0 0.0
2014-Sep-28 10:13N 54°29' E 006°26'0 0.0
2014-Sep-27 22:13N 54°29' E 006°26'0 0.0
2014-Sep-27 11:22N 54°29' E 006°26'21 2.5
2014-Sep-27 03:18N 54°20' E 006°58'911.7
2014-Sep-27 02:33N 54°17' E 007°12'1111.1
2014-Sep-27 01:33N 54°11' E 007°28'1110.9
2014-Sep-27 00:33N 54°02' E 007°37'1310.0
2014-Sep-26 23:12N 53°51' E 007°52'5 8.3
2014-Sep-26 22:33N 53°48' E 007°59'8 8.2
2014-Sep-26 21:33N 53°41' E 008°05'9 9.0
2014-Sep-26 20:33N 53°32' E 008°10'1 1.3
2014-Sep-26 19:33N 53°31' E 008°09'0 0.0
2014-Sep-26 18:31N 53°31' E 008°09'0 0.0
2014-Sep-26 17:31N 53°31' E 008°09'0 0.0
2014-Sep-26 16:28N 53°31' E 008°09'0 0.0
2014-Sep-26 15:31N 53°31' E 008°09'0 0.0
2014-Sep-26 14:31N 53°31' E 008°09'0 0.0
2014-Sep-26 13:31N 53°31' E 008°09'0 0.0
2014-Sep-26 12:31N 53°31' E 008°09'0 0.0
2014-Sep-26 11:28N 53°31' E 008°09'0 0.0
2014-Sep-26 10:31N 53°31' E 008°09'0 0.0
2014-Sep-26 09:31N 53°31' E 008°09'0 0.0
2014-Sep-26 08:31N 53°31' E 008°09'0 0.0
2014-Sep-26 07:31N 53°31' E 008°09'0 0.0
2014-Sep-26 06:31N 53°31' E 008°09'0 0.0
2014-Sep-26 05:31N 53°31' E 008°09'0 0.0
2014-Sep-26 04:31N 53°31' E 008°09'0 0.0
2014-Sep-26 03:31N 53°31' E 008°09'0 0.0
2014-Sep-26 02:31N 53°31' E 008°09'0 0.0
2014-Sep-26 01:31N 53°31' E 008°09'0 0.0
2014-Sep-26 00:31N 53°31' E 008°09'0 0.0
2014-Sep-25 23:31N 53°31' E 008°09'0 0.0
2014-Sep-25 22:31N 53°31' E 008°09'0 0.0
2014-Sep-25 21:28N 53°31' E 008°09'0 0.0
2014-Sep-25 20:31N 53°31' E 008°09'0 0.0
2014-Sep-25 19:28N 53°31' E 008°09'0 0.0
2014-Sep-25 18:31N 53°31' E 008°09'0 0.0
2014-Sep-25 17:31N 53°31' E 008°09'0 0.0
2014-Sep-25 16:31N 53°31' E 008°09'0 0.0
2014-Sep-25 15:31N 53°31' E 008°09'0 0.0
2014-Sep-25 14:31N 53°31' E 008°09'0 0.0
2014-Sep-25 13:31N 53°31' E 008°09'0 0.0
2014-Sep-25 12:31N 53°31' E 008°09'0 0.0
2014-Sep-25 11:28N 53°31' E 008°09'0 0.0
2014-Sep-25 10:31N 53°31' E 008°09'0 0.0
2014-Sep-25 09:31N 53°31' E 008°09'0 0.0
2014-Sep-25 08:31N 53°31' E 008°09'0 0.0
2014-Sep-25 07:31N 53°31' E 008°09'0 0.0
2014-Sep-25 06:31N 53°31' E 008°09'0 0.0
2014-Sep-25 05:31N 53°31' E 008°09'0 0.0
2014-Sep-25 04:31N 53°31' E 008°09'0 0.0
2014-Sep-25 03:31N 53°31' E 008°09'0 0.0
2014-Sep-25 02:31N 53°31' E 008°09'0 0.0
2014-Sep-25 01:31N 53°31' E 008°09'0 0.0
2014-Sep-25 00:31N 53°31' E 008°09'0 0.0
2014-Sep-24 23:31N 53°31' E 008°09'0 0.0
2014-Sep-24 22:31N 53°31' E 008°09'0 0.0
2014-Sep-24 21:28N 53°31' E 008°09'0 0.0
2014-Sep-24 20:31N 53°31' E 008°09'0 0.0
2014-Sep-24 19:31N 53°31' E 008°09'0 0.0
2014-Sep-24 18:31N 53°31' E 008°09'0 0.0
2014-Sep-24 17:31N 53°31' E 008°09'0 0.0
2014-Sep-24 16:31N 53°31' E 008°09'0 0.0
2014-Sep-24 15:31N 53°31' E 008°09'0 0.0
2014-Sep-24 14:27N 53°31' E 008°09'0 0.0
2014-Sep-24 13:16N 53°31' E 008°09'0 0.0
2014-Sep-24 12:31N 53°31' E 008°09'0 0.0
2014-Sep-24 11:19N 53°31' E 008°09'0 0.0
2014-Sep-24 10:31N 53°31' E 008°09'0 0.0
2014-Sep-24 09:31N 53°31' E 008°09'0 0.0
2014-Sep-23 10:33N 53°31' E 008°09'0 0.0
2014-Sep-23 09:33N 53°31' E 008°09'0 0.0
2014-Sep-23 08:33N 53°31' E 008°09'0 0.0
2014-Sep-23 07:33N 53°31' E 008°09'0 0.0
2014-Sep-23 06:33N 53°31' E 008°09'0 0.0
2014-Sep-23 05:30N 53°31' E 008°09'0 0.0
2014-Sep-23 04:27N 53°31' E 008°09'0 0.0
2014-Sep-23 03:18N 53°31' E 008°09'0 0.0
2014-Sep-23 02:27N 53°31' E 008°09'0 0.0
2014-Sep-23 01:33N 53°31' E 008°09'0 0.0
2014-Sep-23 00:30N 53°31' E 008°09'0 0.0
2014-Sep-22 23:33N 53°31' E 008°09'0 0.0
2014-Sep-22 22:33N 53°31' E 008°09'0 0.0
2014-Sep-22 21:30N 53°31' E 008°09'0 0.0
2014-Sep-22 20:33N 53°31' E 008°09'0 0.0
2014-Sep-22 19:33N 53°31' E 008°09'0 0.0
2014-Sep-22 18:33N 53°31' E 008°09'0 0.0
2014-Sep-22 17:33N 53°31' E 008°09'0 0.0
2014-Sep-22 16:33N 53°31' E 008°09'0 0.0
2014-Sep-22 15:33N 53°31' E 008°09'0 0.0
2014-Sep-22 14:33N 53°31' E 008°09'0 0.0
2014-Sep-22 13:33N 53°31' E 008°09'0 0.0
2014-Sep-22 12:33N 53°31' E 008°09'0 0.0
2014-Sep-22 11:30N 53°31' E 008°09'0 0.0
2014-Sep-22 10:33N 53°31' E 008°09'0 0.0
2014-Sep-22 09:33N 53°31' E 008°09'0 0.0
2014-Sep-22 08:30N 53°31' E 008°09'0 0.0
2014-Sep-22 07:33N 53°31' E 008°09'0 0.0
2014-Sep-22 06:33N 53°31' E 008°09'0 0.0
2014-Sep-22 05:33N 53°31' E 008°09'0 0.0
2014-Sep-22 04:33N 53°31' E 008°09'0 0.0
2014-Sep-22 03:33N 53°31' E 008°09'0 0.0
2014-Sep-22 02:33N 53°31' E 008°09'0 0.0
2014-Sep-22 01:33N 53°31' E 008°09'0 0.0
2014-Sep-22 00:30N 53°31' E 008°09'0 0.0
2014-Sep-21 23:33N 53°31' E 008°09'0 0.0
2014-Sep-21 22:30N 53°31' E 008°09'0 0.0
2014-Sep-21 21:30N 53°31' E 008°09'0 0.0
2014-Sep-21 20:33N 53°31' E 008°09'0 0.0
2014-Sep-21 19:33N 53°31' E 008°09'0 0.0
2014-Sep-21 18:33N 53°31' E 008°09'0 0.0
2014-Sep-21 17:33N 53°31' E 008°09'0 0.0
2014-Sep-21 16:33N 53°31' E 008°09'0 0.0
2014-Sep-21 15:33N 53°31' E 008°09'0 0.0
2014-Sep-21 14:33N 53°31' E 008°09'0 0.0
2014-Sep-21 13:33N 53°31' E 008°09'0 0.0
2014-Sep-21 12:33N 53°31' E 008°09'0 0.0
2014-Sep-21 11:33N 53°31' E 008°09'0 0.0
2014-Sep-21 10:33N 53°31' E 008°09'0 0.0
2014-Sep-21 09:33N 53°31' E 008°09'0 0.0
2014-Sep-21 08:33N 53°31' E 008°09'0 0.0
2014-Sep-21 07:33N 53°31' E 008°09'0 0.0
2014-Sep-21 06:33N 53°31' E 008°09'0 0.0
2014-Sep-21 05:33N 53°31' E 008°09'0 0.5
2014-Sep-21 04:33N 53°32' E 008°10'2 1.8
2014-Sep-21 03:33N 53°33' E 008°10'10 9.8
2014-Sep-21 02:33N 53°42' E 008°04'9 8.5
2014-Sep-21 01:33N 53°49' E 007°55'16 8.0
2014-Sep-20 23:33N 54°00' E 007°35'9 8.8
2014-Sep-20 22:33N 54°08' E 007°28'10 9.5
2014-Sep-20 21:33N 54°15' E 007°17'1211.8
2014-Sep-20 20:31N 54°20' E 006°58'  
Track history (hours):
 
Tides and Currents Weather Stations Pressure Air Temp Water Temp Dewpoint Dewpoint Depression Visibility Wind Speed Wind Dir Waves Ship Positions

Tests

Last reported at 2014-Sep-28 15:10 UTC. Time now 2014-Oct-01 12:23 UTC.
Position N 54°29' E 006°26'.

Length 37 m; draft 5.7 m.

Type: Cargo ship. MMSI: 438003028.

Date/timePositionNaut miles runAvg speedWind from/ knotsBaromVisibWave heightAir tempDewpointWater temp
2014-Sep-28 15:10N 54°29' E 006°26'0 0.0
2014-Sep-28 10:13N 54°29' E 006°26'0 0.0
2014-Sep-27 22:13N 54°29' E 006°26'0 0.0
2014-Sep-27 11:22N 54°29' E 006°26'21 2.5
2014-Sep-27 03:18N 54°20' E 006°58'911.7
2014-Sep-27 02:33N 54°17' E 007°12'1111.1
2014-Sep-27 01:33N 54°11' E 007°28'1110.9
2014-Sep-27 00:33N 54°02' E 007°37'1310.0
2014-Sep-26 23:12N 53°51' E 007°52'5 8.3
2014-Sep-26 22:33N 53°48' E 007°59'8 8.2
2014-Sep-26 21:33N 53°41' E 008°05'9 9.0
2014-Sep-26 20:33N 53°32' E 008°10'1 1.3
2014-Sep-26 19:33N 53°31' E 008°09'0 0.0
2014-Sep-26 18:31N 53°31' E 008°09'0 0.0
2014-Sep-26 17:31N 53°31' E 008°09'0 0.0
2014-Sep-26 16:28N 53°31' E 008°09'0 0.0
2014-Sep-26 15:31N 53°31' E 008°09'0 0.0
2014-Sep-26 14:31N 53°31' E 008°09'0 0.0
2014-Sep-26 13:31N 53°31' E 008°09'0 0.0
2014-Sep-26 12:31N 53°31' E 008°09'0 0.0
2014-Sep-26 11:28N 53°31' E 008°09'0 0.0
2014-Sep-26 10:31N 53°31' E 008°09'0 0.0
2014-Sep-26 09:31N 53°31' E 008°09'0 0.0
2014-Sep-26 08:31N 53°31' E 008°09'0 0.0
2014-Sep-26 07:31N 53°31' E 008°09'0 0.0
2014-Sep-26 06:31N 53°31' E 008°09'0 0.0
2014-Sep-26 05:31N 53°31' E 008°09'0 0.0
2014-Sep-26 04:31N 53°31' E 008°09'0 0.0
2014-Sep-26 03:31N 53°31' E 008°09'0 0.0
2014-Sep-26 02:31N 53°31' E 008°09'0 0.0
2014-Sep-26 01:31N 53°31' E 008°09'0 0.0
2014-Sep-26 00:31N 53°31' E 008°09'0 0.0
2014-Sep-25 23:31N 53°31' E 008°09'0 0.0
2014-Sep-25 22:31N 53°31' E 008°09'0 0.0
2014-Sep-25 21:28N 53°31' E 008°09'0 0.0
2014-Sep-25 20:31N 53°31' E 008°09'0 0.0
2014-Sep-25 19:28N 53°31' E 008°09'0 0.0
2014-Sep-25 18:31N 53°31' E 008°09'0 0.0
2014-Sep-25 17:31N 53°31' E 008°09'0 0.0
2014-Sep-25 16:31N 53°31' E 008°09'0 0.0
2014-Sep-25 15:31N 53°31' E 008°09'0 0.0
2014-Sep-25 14:31N 53°31' E 008°09'0 0.0
2014-Sep-25 13:31N 53°31' E 008°09'0 0.0
2014-Sep-25 12:31N 53°31' E 008°09'0 0.0
2014-Sep-25 11:28N 53°31' E 008°09'0 0.0
2014-Sep-25 10:31N 53°31' E 008°09'0 0.0
2014-Sep-25 09:31N 53°31' E 008°09'0 0.0
2014-Sep-25 08:31N 53°31' E 008°09'0 0.0
2014-Sep-25 07:31N 53°31' E 008°09'0 0.0
2014-Sep-25 06:31N 53°31' E 008°09'0 0.0
2014-Sep-25 05:31N 53°31' E 008°09'0 0.0
2014-Sep-25 04:31N 53°31' E 008°09'0 0.0
2014-Sep-25 03:31N 53°31' E 008°09'0 0.0
2014-Sep-25 02:31N 53°31' E 008°09'0 0.0
2014-Sep-25 01:31N 53°31' E 008°09'0 0.0
2014-Sep-25 00:31N 53°31' E 008°09'0 0.0
2014-Sep-24 23:31N 53°31' E 008°09'0 0.0
2014-Sep-24 22:31N 53°31' E 008°09'0 0.0
2014-Sep-24 21:28N 53°31' E 008°09'0 0.0
2014-Sep-24 20:31N 53°31' E 008°09'0 0.0
2014-Sep-24 19:31N 53°31' E 008°09'0 0.0
2014-Sep-24 18:31N 53°31' E 008°09'0 0.0
2014-Sep-24 17:31N 53°31' E 008°09'0 0.0
2014-Sep-24 16:31N 53°31' E 008°09'0 0.0
2014-Sep-24 15:31N 53°31' E 008°09'0 0.0
2014-Sep-24 14:27N 53°31' E 008°09'0 0.0
2014-Sep-24 13:16N 53°31' E 008°09'0 0.0
2014-Sep-24 12:31N 53°31' E 008°09'0 0.0
2014-Sep-24 11:19N 53°31' E 008°09'0 0.0
2014-Sep-24 10:31N 53°31' E 008°09'0 0.0
2014-Sep-24 09:31N 53°31' E 008°09'0 0.0
2014-Sep-23 10:33N 53°31' E 008°09'0 0.0
2014-Sep-23 09:33N 53°31' E 008°09'0 0.0
2014-Sep-23 08:33N 53°31' E 008°09'0 0.0
2014-Sep-23 07:33N 53°31' E 008°09'0 0.0
2014-Sep-23 06:33N 53°31' E 008°09'0 0.0
2014-Sep-23 05:30N 53°31' E 008°09'0 0.0
2014-Sep-23 04:27N 53°31' E 008°09'0 0.0
2014-Sep-23 03:18N 53°31' E 008°09'0 0.0
2014-Sep-23 02:27N 53°31' E 008°09'0 0.0
2014-Sep-23 01:33N 53°31' E 008°09'0 0.0
2014-Sep-23 00:30N 53°31' E 008°09'0 0.0
2014-Sep-22 23:33N 53°31' E 008°09'0 0.0
2014-Sep-22 22:33N 53°31' E 008°09'0 0.0
2014-Sep-22 21:30N 53°31' E 008°09'0 0.0
2014-Sep-22 20:33N 53°31' E 008°09'0 0.0
2014-Sep-22 19:33N 53°31' E 008°09'0 0.0
2014-Sep-22 18:33N 53°31' E 008°09'0 0.0
2014-Sep-22 17:33N 53°31' E 008°09'0 0.0
2014-Sep-22 16:33N 53°31' E 008°09'0 0.0
2014-Sep-22 15:33N 53°31' E 008°09'0 0.0
2014-Sep-22 14:33N 53°31' E 008°09'0 0.0
2014-Sep-22 13:33N 53°31' E 008°09'0 0.0
2014-Sep-22 12:33N 53°31' E 008°09'0 0.0
2014-Sep-22 11:30N 53°31' E 008°09'0 0.0
2014-Sep-22 10:33N 53°31' E 008°09'0 0.0
2014-Sep-22 09:33N 53°31' E 008°09'0 0.0
2014-Sep-22 08:30N 53°31' E 008°09'0 0.0
2014-Sep-22 07:33N 53°31' E 008°09'0 0.0
2014-Sep-22 06:33N 53°31' E 008°09'0 0.0
2014-Sep-22 05:33N 53°31' E 008°09'0 0.0
2014-Sep-22 04:33N 53°31' E 008°09'0 0.0
2014-Sep-22 03:33N 53°31' E 008°09'0 0.0
2014-Sep-22 02:33N 53°31' E 008°09'0 0.0
2014-Sep-22 01:33N 53°31' E 008°09'0 0.0
2014-Sep-22 00:30N 53°31' E 008°09'0 0.0
2014-Sep-21 23:33N 53°31' E 008°09'0 0.0
2014-Sep-21 22:30N 53°31' E 008°09'0 0.0
2014-Sep-21 21:30N 53°31' E 008°09'0 0.0
2014-Sep-21 20:33N 53°31' E 008°09'0 0.0
2014-Sep-21 19:33N 53°31' E 008°09'0 0.0
2014-Sep-21 18:33N 53°31' E 008°09'0 0.0
2014-Sep-21 17:33N 53°31' E 008°09'0 0.0
2014-Sep-21 16:33N 53°31' E 008°09'0 0.0
2014-Sep-21 15:33N 53°31' E 008°09'0 0.0
2014-Sep-21 14:33N 53°31' E 008°09'0 0.0
2014-Sep-21 13:33N 53°31' E 008°09'0 0.0
2014-Sep-21 12:33N 53°31' E 008°09'0 0.0
2014-Sep-21 11:33N 53°31' E 008°09'0 0.0
2014-Sep-21 10:33N 53°31' E 008°09'0 0.0
2014-Sep-21 09:33N 53°31' E 008°09'0 0.0
2014-Sep-21 08:33N 53°31' E 008°09'0 0.0
2014-Sep-21 07:33N 53°31' E 008°09'0 0.0
2014-Sep-21 06:33N 53°31' E 008°09'0 0.0
2014-Sep-21 05:33N 53°31' E 008°09'0 0.5
2014-Sep-21 04:33N 53°32' E 008°10'2 1.8
2014-Sep-21 03:33N 53°33' E 008°10'10 9.8
2014-Sep-21 02:33N 53°42' E 008°04'9 8.5
2014-Sep-21 01:33N 53°49' E 007°55'16 8.0
2014-Sep-20 23:33N 54°00' E 007°35'9 8.8
2014-Sep-20 22:33N 54°08' E 007°28'10 9.5
2014-Sep-20 21:33N 54°15' E 007°17'1211.8
2014-Sep-20 20:31N 54°20' E 006°58'  

Dump ship's entire track history